createdAt,value
2022-12-19T00:01:40.115Z,98271.36
2022-12-19T00:04:16.200Z,98268.67
2022-12-19T00:06:46.166Z,98255.61
2022-12-19T00:09:18.810Z,98261.40
2022-12-19T00:11:50.207Z,98268.27
2022-12-19T00:14:20.837Z,98257.67
2022-12-19T00:16:51.117Z,98262.98
2022-12-19T00:19:22.854Z,98265.16
2022-12-19T00:21:56.072Z,98277.23
2022-12-19T00:24:26.682Z,98276.73
2022-12-19T00:26:57.341Z,98279.47
2022-12-19T00:29:29.267Z,98279.47
2022-12-19T00:32:00.323Z,98296.81
2022-12-19T00:34:30.722Z,98299.31
2022-12-19T00:37:00.757Z,98296.91
2022-12-19T00:39:31.009Z,98292.02
2022-12-19T00:42:01.473Z,98296.98
2022-12-19T00:44:31.606Z,98289.10
2022-12-19T00:47:02.027Z,98289.70
2022-12-19T00:49:32.614Z,98290.56
2022-12-19T00:52:03.753Z,98292.28
2022-12-19T00:54:34.760Z,98290.10
2022-12-19T00:57:05.797Z,98297.28
2022-12-19T00:59:37.080Z,98305.52
2022-12-19T01:02:08.063Z,98306.39
2022-12-19T01:04:41.568Z,98307.80
2022-12-19T01:07:10.129Z,98305.10
2022-12-19T01:09:40.176Z,98307.33
2022-12-19T01:15:17.214Z,98301.95
2022-12-19T01:17:47.520Z,98311.20
2022-12-19T01:20:25.648Z,98307.61
2022-12-19T01:22:51.378Z,98313.89
2022-12-19T01:25:22.924Z,98306.47
2022-12-19T01:27:53.217Z,98309.98
2022-12-19T01:30:26.817Z,98308.86
2022-12-19T01:32:59.343Z,98314.05
2022-12-19T01:35:29.820Z,98328.80
2022-12-19T01:38:08.196Z,98329.86
2022-12-19T01:40:32.466Z,98327.39
2022-12-19T01:43:04.354Z,98326.52
2022-12-19T01:45:37.512Z,98324.30
2022-12-19T01:48:18.362Z,98318.80
2022-12-19T01:51:02.035Z,98308.95
2022-12-19T01:53:28.383Z,98304.58
2022-12-19T01:55:58.518Z,98299.61
2022-12-19T01:58:28.756Z,98295.20
2022-12-19T02:00:58.785Z,98297.66
2022-12-19T02:03:30.192Z,98300.08
2022-12-19T02:06:00.649Z,98306.09
2022-12-19T02:08:30.736Z,98301.17
2022-12-19T02:11:04.179Z,98300.59
2022-12-19T02:13:34.305Z,98290.75
2022-12-19T02:16:16.990Z,98302.45
2022-12-19T02:19:09.517Z,98310.38
2022-12-19T02:21:55.817Z,98318.26
2022-12-19T02:25:01.032Z,98305.41
2022-12-19T02:27:50.128Z,98302.09
2022-12-19T02:30:39.941Z,98306.19
2022-12-19T02:33:21.534Z,98310.19
2022-12-19T02:35:56.712Z,98316.39
2022-12-19T02:38:29.761Z,98327.83
2022-12-19T02:41:11.947Z,98325.39
2022-12-19T02:43:46.572Z,98325.88
2022-12-19T02:46:18.687Z,98318.74
2022-12-19T02:48:49.305Z,98327.38
2022-12-19T02:51:19.779Z,98341.94
2022-12-19T02:53:49.782Z,98346.64
2022-12-19T02:56:25.815Z,98357.65
2022-12-19T02:59:05.256Z,98358.41
2022-12-19T03:01:47.480Z,98366.17
2022-12-19T03:04:37.230Z,98366.39
2022-12-19T03:07:22.283Z,98354.49
2022-12-19T03:10:01.852Z,98354.63
2022-12-19T03:12:35.372Z,98353.98
2022-12-19T03:15:05.537Z,98358.19
2022-12-19T03:17:41.743Z,98357.70
2022-12-19T03:20:16.873Z,98365.41
2022-12-19T03:22:46.844Z,98367.37
2022-12-19T03:25:18.345Z,98377.52
2022-12-19T03:27:49.394Z,98387.12
2022-12-19T03:30:19.517Z,98375.66
2022-12-19T03:32:49.847Z,98386.58
2022-12-19T03:35:22.683Z,98392.89
2022-12-19T03:37:53.972Z,98402.44
2022-12-19T03:40:25.614Z,98406.81
2022-12-19T03:43:12.110Z,98403.27
2022-12-19T03:45:51.815Z,98420.45
2022-12-19T03:48:25.488Z,98427.81
2022-12-19T03:51:03.131Z,98426.45
2022-12-19T03:54:00.238Z,98424.27
2022-12-19T03:56:48.519Z,98444.95
2022-12-19T03:59:21.246Z,98455.63
2022-12-19T04:01:52.973Z,98457.57
2022-12-19T04:04:25.284Z,98454.36
2022-12-19T04:06:55.554Z,98438.84
2022-12-19T04:09:26.428Z,98439.89
2022-12-19T04:12:00.405Z,98448.08
2022-12-19T04:14:35.527Z,98448.62
2022-12-19T04:17:17.514Z,98435.26
2022-12-19T04:19:51.047Z,98423.23
2022-12-19T04:22:27.465Z,98393.99
2022-12-19T04:24:57.299Z,98388.31
2022-12-19T04:27:29.559Z,98377.63
2022-12-19T04:30:00.159Z,98372.94
2022-12-19T04:32:31.452Z,98372.94
2022-12-19T04:35:02.569Z,98350.83
2022-12-19T04:37:33.065Z,98350.55
2022-12-19T04:40:03.287Z,98353.78
2022-12-19T04:42:33.549Z,98356.23
2022-12-19T04:45:03.495Z,98360.32
2022-12-19T04:47:34.352Z,98363.78
2022-12-19T04:50:04.554Z,98375.23
2022-12-19T04:52:35.163Z,98381.77
2022-12-19T04:55:07.106Z,98396.46
2022-12-19T04:57:37.446Z,98405.19
2022-12-19T05:00:09.571Z,98404.08
2022-12-19T05:02:41.474Z,98405.12
2022-12-19T05:05:11.647Z,98411.66
2022-12-19T05:07:42.008Z,98402.12
2022-12-19T05:10:12.815Z,98390.32
2022-12-19T05:12:43.130Z,98396.31
2022-12-19T05:15:13.506Z,98405.86
2022-12-19T05:17:44.066Z,98398.44
2022-12-19T05:20:14.568Z,98401.71
2022-12-19T05:22:44.423Z,98406.85
2022-12-19T05:25:15.046Z,98402.16
2022-12-19T05:30:12.132Z,98385.03
2022-12-19T05:32:43.888Z,98373.12
2022-12-19T05:35:17.175Z,98367.98
2022-12-19T05:37:47.276Z,98381.30
2022-12-19T05:40:17.422Z,98392.47
2022-12-19T05:42:47.527Z,98391.87
2022-12-19T05:45:19.204Z,98380.91
2022-12-19T05:53:21.849Z,98387.66
2022-12-19T05:55:49.914Z,98398.28
2022-12-19T05:58:20.001Z,98388.13
2022-12-19T06:00:50.803Z,98386.17
2022-12-19T06:03:21.776Z,98376.89
2022-12-19T06:05:52.534Z,98369.22
2022-12-19T06:08:23.170Z,98346.46
2022-12-19T06:10:55.094Z,98345.70
2022-12-19T06:13:27.330Z,98346.77
2022-12-19T06:16:15.328Z,98333.91
2022-12-19T06:18:46.125Z,98326.75
2022-12-19T06:21:17.953Z,98331.13
2022-12-19T06:23:48.842Z,98316.61
2022-12-19T06:26:20.423Z,98315.25
2022-12-19T06:28:53.601Z,98309.73
2022-12-19T06:31:25.031Z,98311.58
2022-12-19T06:33:57.222Z,98311.58
2022-12-19T06:36:29.324Z,98298.72
2022-12-19T06:38:59.739Z,98288.89
2022-12-19T06:41:47.028Z,98285.85
2022-12-19T06:44:18.167Z,98292.92
2022-12-19T06:46:48.541Z,98288.23
2022-12-19T06:49:18.643Z,98290.14
2022-12-19T06:51:48.760Z,98282.19
2022-12-19T06:54:19.608Z,98277.75
2022-12-19T06:56:49.832Z,98267.93
2022-12-19T06:59:20.015Z,98265.97
2022-12-19T07:02:13.919Z,98262.93
2022-12-19T07:04:45.743Z,98263.16
2022-12-19T07:07:16.237Z,98250.58
2022-12-19T07:09:46.834Z,98244.56
2022-12-19T07:12:17.079Z,98243.70
2022-12-19T07:14:52.957Z,98251.31
2022-12-19T07:17:19.482Z,98255.08
2022-12-19T07:19:50.181Z,98250.71
2022-12-19T07:22:21.768Z,98247.39
2022-12-19T07:24:52.687Z,98251.47
2022-12-19T07:27:23.937Z,98248.69
2022-12-19T07:29:54.519Z,98247.58
2022-12-19T07:32:25.508Z,98246.98
2022-12-19T07:34:59.315Z,98250.78
2022-12-19T07:37:29.778Z,98243.66
2022-12-19T07:40:00.196Z,98252.91
2022-12-19T07:42:32.864Z,98256.68
2022-12-19T07:45:03.613Z,98260.48
2022-12-19T07:47:33.622Z,98247.63
2022-12-19T07:50:04.331Z,98248.70
2022-12-19T07:52:34.651Z,98244.33
2022-12-19T07:55:04.849Z,98241.00
2022-12-19T07:57:35.408Z,98253.26
2022-12-19T08:00:06.321Z,98253.20
2022-12-19T08:02:37.237Z,98253.20
2022-12-19T08:05:08.018Z,98272.35
2022-12-19T08:07:38.234Z,98272.35
2022-12-19T13:57:30.570Z,98246.29
2022-12-19T14:00:03.099Z,98236.26
2022-12-19T14:02:43.770Z,98242.63
2022-12-19T14:05:07.596Z,98247.04
2022-12-19T14:07:42.255Z,98257.23
2022-12-19T14:11:37.779Z,98260.00
2022-12-19T14:13:55.653Z,98264.69
2022-12-19T14:15:42.299Z,98264.45
2022-12-19T14:18:45.065Z,98265.31
2022-12-19T14:22:09.905Z,98251.75
2022-12-19T14:23:42.608Z,98252.61
2022-12-19T14:28:19.656Z,98249.38
2022-12-19T14:28:42.325Z,98248.86
2022-12-19T14:31:14.410Z,98256.58
2022-12-19T14:34:11.177Z,98243.46
2022-12-19T14:36:26.065Z,98245.69
2022-12-19T14:39:22.761Z,98252.86
2022-12-19T14:41:57.351Z,98251.22
2022-12-19T14:52:34.429Z,98244.18
2022-12-19T14:54:04.126Z,98251.56
2022-12-19T14:54:14.413Z,98251.09
2022-12-19T14:54:31.360Z,98251.67
2022-12-19T14:56:16.019Z,98258.27
2022-12-19T14:58:53.233Z,98261.03
2022-12-19T15:01:08.048Z,98255.33
2022-12-19T15:03:04.026Z,98245.27
2022-12-19T15:05:34.716Z,98254.03
2022-12-19T15:08:04.730Z,98255.91
2022-12-19T15:11:08.037Z,98259.43
2022-12-19T15:14:52.564Z,98273.10
2022-12-19T15:16:02.958Z,98267.36
2022-12-19T15:21:13.458Z,98267.94
2022-12-19T15:23:43.397Z,98276.62
2022-12-19T15:26:18.749Z,98279.87
2022-12-19T15:28:55.616Z,98271.39
2022-12-19T15:31:40.895Z,98260.81
2022-12-19T15:34:34.908Z,98260.81
2022-12-19T15:36:53.029Z,98278.46
2022-12-19T15:39:24.357Z,98278.16
2022-12-19T15:42:01.564Z,98268.00
2022-12-19T15:44:43.166Z,98267.17
2022-12-19T15:47:21.745Z,98262.77
2022-12-19T15:49:52.245Z,98259.45
2022-12-19T15:52:22.530Z,98257.80
2022-12-19T15:54:52.516Z,98258.59
2022-12-19T15:57:26.116Z,98255.55
2022-12-19T15:59:57.382Z,98241.57
2022-12-19T16:02:56.374Z,98242.90
2022-12-19T16:05:04.259Z,98250.83
2022-12-19T16:07:32.883Z,98246.69
2022-12-19T16:10:03.589Z,98253.25
2022-12-19T16:12:38.420Z,98254.30
2022-12-19T16:15:10.984Z,98243.64
2022-12-19T16:17:41.343Z,98249.62
2022-12-19T16:20:19.946Z,98247.13
2022-12-19T16:22:50.262Z,98246.30
2022-12-19T16:25:21.004Z,98238.88
2022-12-19T16:27:58.780Z,98237.23
2022-12-19T16:30:32.006Z,98245.67
2022-12-19T16:33:02.207Z,98245.94
2022-12-19T16:36:03.000Z,98240.72
2022-12-19T16:38:06.139Z,98239.59
2022-12-19T16:40:36.342Z,98222.64
2022-12-19T16:43:12.657Z,98229.70
2022-12-19T16:45:44.352Z,98222.83
2022-12-19T16:48:26.173Z,98221.19
2022-12-19T16:50:56.374Z,98217.33
2022-12-19T16:53:26.827Z,98215.38
2022-12-19T16:55:57.646Z,98212.09
2022-12-19T16:58:30.493Z,98206.32
2022-12-19T17:01:00.896Z,98200.30
2022-12-19T17:03:44.051Z,98205.46
2022-12-19T17:06:20.835Z,98217.48
2022-12-19T17:08:50.897Z,98223.73
2022-12-19T17:11:25.428Z,98218.53
2022-12-19T17:13:59.491Z,98208.92
2022-12-19T17:16:29.699Z,98208.62
2022-12-19T17:19:00.691Z,98193.01
2022-12-19T17:23:56.914Z,98171.73
2022-12-19T17:26:28.034Z,98170.02
2022-12-19T17:29:00.204Z,98169.74
2022-12-19T17:31:31.066Z,98164.75
2022-12-19T17:34:01.009Z,98167.20
2022-12-19T17:36:37.177Z,98177.86
2022-12-19T17:39:04.196Z,98178.91
2022-12-19T17:41:35.168Z,98171.53
2022-12-19T17:44:05.292Z,98161.39
2022-12-19T17:46:35.614Z,98160.56
2022-12-19T17:49:05.978Z,98162.92
2022-12-19T17:51:36.074Z,98167.56
2022-12-19T17:54:09.185Z,98159.91
2022-12-19T17:56:39.344Z,98160.69
2022-12-19T17:59:09.454Z,98155.19
2022-12-19T18:01:41.291Z,98158.45
2022-12-19T18:04:23.405Z,98136.85
2022-12-19T18:06:53.545Z,98139.30
2022-12-19T18:09:25.634Z,98127.25
2022-12-19T18:11:55.866Z,98127.25
2022-12-19T18:14:26.649Z,98118.75
2022-12-19T18:16:58.242Z,98109.73
2022-12-19T18:19:30.527Z,98106.97
2022-12-19T18:22:00.900Z,98095.50
2022-12-19T18:24:34.436Z,98083.17
2022-12-19T18:27:08.416Z,98082.90
2022-12-19T18:29:38.612Z,98078.53
2022-12-19T18:32:11.165Z,98076.03
2022-12-19T18:34:41.731Z,98081.49
2022-12-19T18:37:17.380Z,98078.18
2022-12-19T18:39:47.858Z,98074.09
2022-12-19T18:42:22.330Z,98068.89
2022-12-19T18:44:55.247Z,98062.03
2022-12-19T18:47:26.342Z,98057.94
2022-12-19T18:49:56.831Z,98050.77
2022-12-19T18:52:27.845Z,98051.89
2022-12-19T18:54:57.929Z,98058.13
2022-12-19T18:57:28.878Z,98050.21
2022-12-19T18:59:59.444Z,98046.62
2022-12-19T19:02:30.143Z,98042.53
2022-12-19T19:05:00.587Z,98050.45
2022-12-19T19:07:30.731Z,98047.44
2022-12-19T19:09:59.579Z,98046.08
2022-12-19T19:12:30.374Z,98040.86
2022-12-19T19:15:02.229Z,98045.22
2022-12-19T19:17:32.683Z,98033.99
2022-12-19T19:20:03.576Z,98029.08
2022-12-19T19:22:34.123Z,98028.53
2022-12-19T19:25:04.449Z,98023.34
2022-12-19T19:27:35.292Z,98012.94
2022-12-19T19:30:10.910Z,98015.39
2022-12-19T19:32:42.751Z,98011.84
2022-12-19T19:35:13.262Z,98009.35
2022-12-19T19:37:44.845Z,98009.35
2022-12-19T19:40:15.461Z,98009.90
2022-12-19T19:42:45.775Z,97995.98
2022-12-19T19:45:15.667Z,97991.88
2022-12-19T19:47:45.775Z,97978.48
2022-12-19T19:50:16.057Z,97976.30
2022-12-19T19:52:45.966Z,97985.02
2022-12-19T19:55:18.915Z,97980.93
2022-12-19T19:57:49.558Z,97982.53
2022-12-19T20:00:21.302Z,97976.25
2022-12-19T20:02:51.777Z,97977.62
2022-12-19T20:05:22.200Z,97973.25
2022-12-19T20:07:52.241Z,97975.98
2022-12-19T20:10:22.692Z,97958.28
2022-12-19T20:12:52.963Z,97972.66
2022-12-19T20:15:23.295Z,97966.08
2022-12-19T20:17:55.131Z,97967.45
2022-12-19T20:20:26.602Z,97968.81
2022-12-19T20:22:56.522Z,97968.54
2022-12-19T20:25:27.989Z,97979.45
2022-12-19T20:27:58.899Z,97981.31
2022-12-19T20:30:30.061Z,97990.59
2022-12-19T20:33:00.156Z,97986.69
2022-12-19T20:35:30.569Z,97998.27
2022-12-19T20:38:02.763Z,97997.42
2022-12-19T20:40:32.885Z,97990.86
2022-12-19T20:43:03.216Z,97991.45
2022-12-19T20:45:33.300Z,97997.14
2022-12-19T20:48:03.664Z,97995.50
2022-12-19T20:50:38.056Z,97992.77
2022-12-19T20:53:05.956Z,98008.29
2022-12-19T20:55:36.282Z,98009.14
2022-12-19T20:58:06.441Z,98010.20
2022-12-19T21:00:36.477Z,98008.56
2022-12-19T21:05:39.419Z,98028.20
2022-12-19T21:08:09.833Z,98035.30
2022-12-19T21:10:40.439Z,98035.84
2022-12-19T21:13:11.108Z,98032.52
2022-12-19T21:15:45.871Z,98033.61
2022-12-19T21:18:16.185Z,98039.34
2022-12-19T21:20:46.191Z,98041.80
2022-12-19T21:23:16.676Z,98051.08
2022-12-19T21:25:47.016Z,98053.53
2022-12-19T21:28:17.102Z,98055.71
2022-12-19T21:30:47.070Z,98061.16
2022-12-19T21:33:17.869Z,98067.44
2022-12-19T21:35:47.993Z,98075.89
2022-12-19T21:38:20.865Z,98075.89
2022-12-19T21:40:51.119Z,98077.53
2022-12-19T21:43:21.070Z,98076.71
2022-12-19T21:48:53.629Z,98071.02
2022-12-19T21:51:26.052Z,98073.20
2022-12-19T21:53:59.431Z,98082.75
2022-12-19T21:56:33.303Z,98081.63
2022-12-19T21:59:06.734Z,98076.17
2022-12-19T22:01:42.455Z,98078.08
2022-12-19T22:04:17.254Z,98081.63
2022-12-19T22:06:47.567Z,98089.81
2022-12-19T22:09:19.142Z,98099.12
2022-12-19T22:11:50.187Z,98096.63
2022-12-19T22:14:26.515Z,98098.30
2022-12-19T22:16:58.576Z,98106.18
2022-12-19T22:19:29.960Z,98113.31
2022-12-19T22:22:05.013Z,98127.46
2022-12-19T22:24:38.736Z,98111.63
2022-12-19T22:27:09.507Z,98120.13
2022-12-19T22:29:39.864Z,98135.41
2022-12-19T22:32:10.925Z,98131.32
2022-12-19T22:34:40.935Z,98124.73
2022-12-19T22:37:11.631Z,98140.59
2022-12-19T22:39:41.895Z,98140.82
2022-12-19T22:42:13.016Z,98144.37
2022-12-19T22:44:43.394Z,98149.83
2022-12-19T22:47:28.930Z,98158.83
2022-12-19T22:50:14.242Z,98160.73
2022-12-19T22:52:58.890Z,98157.19
2022-12-19T22:55:30.573Z,98159.38
2022-12-19T22:58:01.376Z,98168.92
2022-12-19T23:00:33.508Z,98166.45
2022-12-19T23:03:05.316Z,98158.27
2022-12-19T23:05:55.511Z,98174.10
2022-12-19T23:08:27.534Z,98174.64
2022-12-19T23:11:03.665Z,98174.10
2022-12-19T23:13:32.100Z,98184.42
2022-12-19T23:16:03.337Z,98190.42
2022-12-19T23:18:37.057Z,98203.02
2022-12-19T23:21:18.704Z,98209.35
2022-12-19T23:23:49.465Z,98203.94
2022-12-19T23:26:28.016Z,98210.53
2022-12-19T23:29:07.498Z,98209.27
2022-12-19T23:31:37.674Z,98209.27
2022-12-19T23:34:08.090Z,98215.59
2022-12-19T23:39:13.143Z,98209.92
2022-12-19T23:41:43.554Z,98220.66
2022-12-19T23:44:21.874Z,98231.62
2022-12-19T23:46:55.498Z,98228.94
2022-12-19T23:49:25.311Z,98236.62
2022-12-19T23:51:57.943Z,98241.59
2022-12-19T23:54:28.799Z,98240.55
2022-12-19T23:57:00.956Z,98231.59
2022-12-19T23:59:36.853Z,98238.23
